createdAt,value
2017-04-30T00:00:31.280Z,13.28
2017-04-30T00:02:59.004Z,15.72
2017-04-30T00:05:27.468Z,16.97
2017-04-30T00:07:55.522Z,19.52
2017-04-30T00:10:23.263Z,17.05
2017-04-30T00:12:50.984Z,15.23
2017-04-30T00:15:19.512Z,17.65
2017-04-30T00:17:47.240Z,16.10
2017-04-30T00:20:15.707Z,15.97
2017-04-30T00:22:44.220Z,20.50
2017-04-30T00:25:11.944Z,16.32
2017-04-30T00:27:39.672Z,14.78
2017-04-30T00:30:07.464Z,15.07
2017-04-30T00:32:35.197Z,15.75
2017-04-30T00:35:02.932Z,16.17
2017-04-30T00:37:31.274Z,21.68
2017-04-30T00:39:59.001Z,17.43
2017-04-30T00:42:26.719Z,21.05
2017-04-30T00:44:56.309Z,17.13
2017-04-30T00:47:24.042Z,16.60
2017-04-30T00:49:51.778Z,19.17
2017-04-30T00:52:19.908Z,16.13
2017-04-30T00:54:47.642Z,18.02
2017-04-30T00:57:15.369Z,12.60
2017-04-30T00:59:44.231Z,15.83
2017-04-30T01:02:12.720Z,12.27
2017-04-30T01:04:41.181Z,13.00
2017-04-30T01:07:09.668Z,16.57
2017-04-30T01:09:37.388Z,10.13
2017-04-30T01:12:05.105Z,14.98
2017-04-30T01:14:33.639Z,13.95
2017-04-30T01:17:01.387Z,14.43
2017-04-30T01:19:29.117Z,13.73
2017-04-30T01:21:57.984Z,12.12
2017-04-30T01:24:25.710Z,13.02
2017-04-30T01:26:53.449Z,11.47
2017-04-30T01:29:22.117Z,12.97
2017-04-30T01:31:50.580Z,12.72
2017-04-30T01:34:18.304Z,20.70
2017-04-30T01:36:46.057Z,16.60
2017-04-30T01:39:13.799Z,12.60
2017-04-30T01:41:41.532Z,11.32
2017-04-30T01:44:09.603Z,13.48
2017-04-30T01:46:37.334Z,16.33
2017-04-30T01:49:05.059Z,18.38
2017-04-30T01:51:33.863Z,10.70
2017-04-30T01:54:01.589Z,13.03
2017-04-30T01:56:30.047Z,12.17
2017-04-30T01:58:57.798Z,9.73
2017-04-30T02:01:26.398Z,13.77
2017-04-30T02:03:54.112Z,10.15
2017-04-30T02:06:21.959Z,12.87
2017-04-30T02:08:50.419Z,12.78
2017-04-30T02:11:18.142Z,11.13
2017-04-30T02:13:45.893Z,10.70
2017-04-30T02:16:13.640Z,12.85
2017-04-30T02:18:41.368Z,12.92
2017-04-30T02:21:09.180Z,11.38
2017-04-30T02:23:36.900Z,11.45
2017-04-30T02:26:04.619Z,11.65
2017-04-30T02:28:32.389Z,15.25
2017-04-30T02:31:00.128Z,12.83
2017-04-30T02:33:27.856Z,14.97
2017-04-30T02:35:56.637Z,13.33
2017-04-30T02:38:39.252Z,14.75
2017-04-30T02:41:07.319Z,12.43
2017-04-30T02:43:35.065Z,13.75
2017-04-30T02:46:02.787Z,10.83
2017-04-30T02:48:30.535Z,15.15
2017-04-30T02:50:58.272Z,13.33
2017-04-30T02:53:26.036Z,14.38
2017-04-30T02:55:54.316Z,17.30
2017-04-30T02:58:22.060Z,12.52
2017-04-30T03:00:49.852Z,14.92
2017-04-30T03:03:18.532Z,13.70
2017-04-30T03:05:46.271Z,13.72
2017-04-30T03:08:14.000Z,14.12
2017-04-30T03:10:41.883Z,14.75
2017-04-30T03:13:09.620Z,15.62
2017-04-30T03:15:37.349Z,15.10
2017-04-30T03:18:05.118Z,13.43
2017-04-30T03:20:33.599Z,16.13
2017-04-30T03:23:02.060Z,17.72
2017-04-30T03:25:30.148Z,19.98
2017-04-30T03:27:58.609Z,16.03
2017-04-30T03:30:26.336Z,15.88
2017-04-30T03:32:54.564Z,16.63
2017-04-30T03:35:22.288Z,17.73
2017-04-30T03:38:02.277Z,15.15
2017-04-30T03:40:41.780Z,18.67
2017-04-30T03:43:21.894Z,15.68
2017-04-30T03:46:01.460Z,15.77
2017-04-30T03:48:42.059Z,16.72
2017-04-30T03:51:21.592Z,17.70
2017-04-30T03:54:01.263Z,16.47
2017-04-30T03:56:41.724Z,15.10
2017-04-30T03:59:22.244Z,21.58
2017-04-30T04:02:01.971Z,17.87
2017-04-30T04:04:42.410Z,17.72
2017-04-30T04:07:22.718Z,18.28
2017-04-30T04:10:02.693Z,17.55
2017-04-30T04:12:42.344Z,17.48
2017-04-30T04:15:22.728Z,15.85
2017-04-30T04:18:02.336Z,18.03
2017-04-30T04:20:42.005Z,17.50
2017-04-30T04:23:21.598Z,15.83
2017-04-30T04:26:01.284Z,16.67
2017-04-30T04:28:41.624Z,17.27
2017-04-30T04:31:21.411Z,21.28
2017-04-30T04:34:01.061Z,19.58
2017-04-30T04:36:41.588Z,22.57
2017-04-30T04:39:22.108Z,16.88
2017-04-30T04:42:01.992Z,14.33
2017-04-30T04:44:42.316Z,20.42
2017-04-30T04:47:21.936Z,16.82
2017-04-30T04:50:01.527Z,14.22
2017-04-30T04:52:41.117Z,18.68
2017-04-30T04:55:20.712Z,16.80
2017-04-30T04:58:00.370Z,18.35
2017-04-30T05:00:40.644Z,13.53
2017-04-30T05:03:21.682Z,16.48
2017-04-30T05:06:01.402Z,16.63
2017-04-30T05:08:41.789Z,14.97
2017-04-30T05:11:21.416Z,15.62
2017-04-30T05:14:01.090Z,22.57
2017-04-30T05:16:41.431Z,16.90
2017-04-30T05:19:21.382Z,19.07
2017-04-30T05:22:00.860Z,14.18
2017-04-30T05:24:40.599Z,13.77
2017-04-30T05:27:20.270Z,17.87
2017-04-30T05:30:00.153Z,16.40
2017-04-30T05:32:39.793Z,14.90
2017-04-30T05:35:19.745Z,13.07
2017-04-30T05:37:59.365Z,16.42
2017-04-30T05:40:39.071Z,11.22
2017-04-30T05:43:18.618Z,13.30
2017-04-30T05:45:59.137Z,14.18
2017-04-30T05:48:38.656Z,12.23
2017-04-30T05:51:18.534Z,9.82
2017-04-30T05:53:58.841Z,13.13
2017-04-30T05:56:38.838Z,10.53
2017-04-30T05:59:19.148Z,9.60
2017-04-30T06:01:59.030Z,9.95
2017-04-30T06:04:38.535Z,12.83
2017-04-30T06:07:19.041Z,16.55
2017-04-30T06:09:59.392Z,12.60
2017-04-30T06:12:39.173Z,9.75
2017-04-30T06:15:18.771Z,8.65
2017-04-30T06:17:59.139Z,9.95
2017-04-30T06:20:38.683Z,13.80
2017-04-30T06:23:18.424Z,9.43
2017-04-30T06:25:57.979Z,10.40
2017-04-30T06:28:38.516Z,11.20
2017-04-30T06:31:18.171Z,9.52
2017-04-30T06:33:57.764Z,8.62
2017-04-30T06:36:37.270Z,9.93
2017-04-30T06:39:18.542Z,10.77
2017-04-30T06:41:58.869Z,7.95
2017-04-30T06:44:38.863Z,7.62
2017-04-30T06:47:18.604Z,9.45
2017-04-30T06:50:00.483Z,16.20
2017-04-30T06:52:40.249Z,11.73
2017-04-30T06:55:19.906Z,5.72
2017-04-30T06:57:59.497Z,7.18
2017-04-30T07:00:39.511Z,12.52
2017-04-30T07:03:19.088Z,7.23
2017-04-30T07:05:58.747Z,8.92
2017-04-30T07:08:38.466Z,9.35
2017-04-30T07:11:19.362Z,7.75
2017-04-30T07:13:58.908Z,6.15
2017-04-30T07:16:40.014Z,7.03
2017-04-30T07:19:19.622Z,6.58
2017-04-30T07:21:59.988Z,8.28
2017-04-30T07:24:39.630Z,5.73
2017-04-30T07:27:20.516Z,12.03
2017-04-30T07:30:00.931Z,7.80
2017-04-30T07:32:40.441Z,9.47
2017-04-30T07:35:20.161Z,7.93
2017-04-30T07:38:00.408Z,7.68
2017-04-30T07:40:40.748Z,6.78
2017-04-30T07:43:08.501Z,10.27
2017-04-30T07:45:36.230Z,9.23
2017-04-30T07:48:03.963Z,5.33
2017-04-30T07:50:32.440Z,7.28
2017-04-30T07:53:01.113Z,12.12
2017-04-30T07:55:29.935Z,9.58
2017-04-30T07:57:57.712Z,7.30
2017-04-30T08:00:25.876Z,7.35
2017-04-30T08:02:53.600Z,7.78
2017-04-30T08:05:21.364Z,8.38
2017-04-30T08:07:49.337Z,6.77
2017-04-30T08:10:17.808Z,8.22
2017-04-30T08:12:45.539Z,8.53
2017-04-30T08:15:13.848Z,6.83
2017-04-30T08:17:41.577Z,5.37
2017-04-30T08:20:09.320Z,6.73
2017-04-30T08:22:37.047Z,9.15
2017-04-30T08:25:05.516Z,7.03
2017-04-30T08:27:33.308Z,5.58
2017-04-30T08:30:01.034Z,5.98
2017-04-30T08:32:28.784Z,6.32
2017-04-30T08:34:56.508Z,7.65
2017-04-30T08:37:24.251Z,6.13
2017-04-30T08:39:52.447Z,9.60
2017-04-30T08:42:20.185Z,7.02
2017-04-30T08:44:48.661Z,7.27
2017-04-30T08:47:17.124Z,8.52
2017-04-30T08:49:44.857Z,7.10
2017-04-30T08:52:12.677Z,10.42
2017-04-30T08:54:41.161Z,11.15
2017-04-30T08:57:09.663Z,9.58
2017-04-30T08:59:37.452Z,7.02
2017-04-30T09:02:05.200Z,7.90
2017-04-30T09:04:32.929Z,7.68
2017-04-30T09:07:01.436Z,7.83
2017-04-30T09:09:29.184Z,7.60
2017-04-30T09:11:56.915Z,7.40
2017-04-30T09:14:24.695Z,11.73
2017-04-30T09:16:53.165Z,8.18
2017-04-30T09:19:20.935Z,9.33
2017-04-30T09:21:50.376Z,6.67
2017-04-30T09:24:18.104Z,8.33
2017-04-30T09:26:46.584Z,8.70
2017-04-30T09:29:15.802Z,8.62
2017-04-30T09:31:43.548Z,9.70
2017-04-30T09:34:12.027Z,7.57
2017-04-30T09:36:41.064Z,7.50
2017-04-30T09:39:08.801Z,10.05
2017-04-30T09:41:36.543Z,7.00
2017-04-30T09:44:05.955Z,8.98
2017-04-30T09:46:34.434Z,8.88
2017-04-30T09:49:02.908Z,8.30
2017-04-30T09:51:32.308Z,8.40
2017-04-30T09:54:00.048Z,5.52
2017-04-30T09:56:27.782Z,8.83
2017-04-30T09:58:55.574Z,8.53
2017-04-30T10:01:23.348Z,11.75
2017-04-30T10:03:51.114Z,8.24
2017-04-30T10:06:19.303Z,11.38
2017-04-30T10:08:47.784Z,10.45
2017-04-30T10:11:16.267Z,10.25
2017-04-30T10:13:44.764Z,9.83
2017-04-30T10:16:12.522Z,11.70
2017-04-30T10:18:41.025Z,13.37
2017-04-30T10:21:08.906Z,17.58
2017-04-30T10:23:36.636Z,10.42
2017-04-30T10:26:04.368Z,18.52
2017-04-30T10:28:32.805Z,12.44
2017-04-30T10:31:00.562Z,10.43
2017-04-30T10:33:28.325Z,11.87
2017-04-30T10:35:56.110Z,13.30
2017-04-30T10:38:23.896Z,12.86
2017-04-30T10:40:51.739Z,12.00
2017-04-30T10:43:19.533Z,10.18
2017-04-30T10:45:48.672Z,12.57
2017-04-30T10:48:16.420Z,12.00
2017-04-30T10:50:44.933Z,10.95
2017-04-30T10:53:12.672Z,10.98
2017-04-30T10:55:40.428Z,11.13
2017-04-30T10:58:10.548Z,11.22
2017-04-30T11:00:38.330Z,10.43
2017-04-30T11:03:06.069Z,13.02
2017-04-30T11:05:34.592Z,10.73
2017-04-30T11:08:02.347Z,9.15
2017-04-30T11:10:30.084Z,11.52
2017-04-30T11:12:58.888Z,9.20
2017-04-30T11:15:26.621Z,12.16
2017-04-30T11:17:54.358Z,10.24
2017-04-30T11:20:23.174Z,9.72
2017-04-30T11:22:51.652Z,9.06
2017-04-30T11:25:19.389Z,10.28
2017-04-30T11:27:47.393Z,12.14
2017-04-30T11:30:15.868Z,8.78
2017-04-30T11:32:43.613Z,10.64
2017-04-30T11:35:11.625Z,10.52
2017-04-30T11:37:39.372Z,10.32
2017-04-30T11:40:07.884Z,6.84
2017-04-30T11:42:35.812Z,7.96
2017-04-30T11:45:03.563Z,8.44
2017-04-30T11:47:31.297Z,8.54
2017-04-30T11:49:59.920Z,6.88
2017-04-30T11:52:28.429Z,6.06
2017-04-30T11:54:56.167Z,6.00
2017-04-30T11:57:25.469Z,10.14
2017-04-30T11:59:53.243Z,7.38
2017-04-30T12:02:21.817Z,10.04
2017-04-30T12:04:50.374Z,8.44
2017-04-30T12:07:18.105Z,7.02
2017-04-30T12:09:45.868Z,7.90
2017-04-30T12:12:13.630Z,6.36
2017-04-30T12:14:41.386Z,7.48
2017-04-30T12:17:09.149Z,6.62
2017-04-30T12:19:37.301Z,6.96
2017-04-30T12:22:05.785Z,6.84
2017-04-30T12:24:34.264Z,8.22
2017-04-30T12:27:02.778Z,6.64
2017-04-30T12:29:30.512Z,15.86
2017-04-30T12:31:59.010Z,5.72
2017-04-30T12:34:27.252Z,6.14
2017-04-30T12:36:55.731Z,7.80
2017-04-30T12:39:23.460Z,5.42
2017-04-30T12:41:51.232Z,6.68
2017-04-30T12:44:18.960Z,4.74
2017-04-30T12:46:46.714Z,4.40
2017-04-30T12:49:15.625Z,4.22
2017-04-30T12:51:43.348Z,4.68
2017-04-30T12:54:11.824Z,4.24
2017-04-30T12:56:40.340Z,5.10
2017-04-30T12:59:08.080Z,5.40
2017-04-30T13:01:36.582Z,4.38
2017-04-30T13:04:04.732Z,5.64
2017-04-30T13:06:33.212Z,3.80
2017-04-30T13:09:01.688Z,6.90
2017-04-30T13:11:30.216Z,3.64
2017-04-30T13:13:57.986Z,5.42
2017-04-30T13:16:25.733Z,3.76
2017-04-30T13:18:53.509Z,5.62
2017-04-30T13:21:21.255Z,3.30
2017-04-30T13:23:49.033Z,3.82
2017-04-30T13:26:16.950Z,3.70
2017-04-30T13:28:44.687Z,5.32
2017-04-30T13:31:12.488Z,3.64
2017-04-30T13:33:40.963Z,4.44
2017-04-30T13:36:09.451Z,4.02
2017-04-30T13:38:37.920Z,4.28
2017-04-30T13:41:05.684Z,4.26
2017-04-30T13:43:33.416Z,7.00
2017-04-30T13:46:01.288Z,4.78
2017-04-30T13:48:29.052Z,3.80
2017-04-30T13:50:58.179Z,2.74
2017-04-30T13:53:25.948Z,2.36
2017-04-30T13:55:54.480Z,3.86
2017-04-30T13:58:22.234Z,3.88
2017-04-30T14:00:49.975Z,2.68
2017-04-30T14:03:17.757Z,3.02
2017-04-30T14:05:45.483Z,2.98
2017-04-30T14:08:13.963Z,3.10
2017-04-30T14:10:43.052Z,4.38
2017-04-30T14:13:10.790Z,3.04
2017-04-30T14:15:38.515Z,2.40
2017-04-30T14:18:07.168Z,2.72
2017-04-30T14:20:35.636Z,3.78
2017-04-30T14:23:03.372Z,3.26
2017-04-30T14:25:31.382Z,4.62
2017-04-30T14:27:59.870Z,3.86
2017-04-30T14:30:28.377Z,3.06
2017-04-30T14:32:57.353Z,3.18
2017-04-30T14:35:25.086Z,4.28
2017-04-30T14:37:53.688Z,2.64
2017-04-30T14:40:22.572Z,3.52
2017-04-30T14:42:51.042Z,3.26
2017-04-30T14:45:18.764Z,2.90
2017-04-30T14:47:46.978Z,4.96
2017-04-30T14:50:14.712Z,3.28
2017-04-30T14:52:42.876Z,2.82
2017-04-30T14:55:10.632Z,4.68
2017-04-30T14:57:38.361Z,2.60
2017-04-30T15:00:06.858Z,3.20
2017-04-30T15:02:35.001Z,3.28
2017-04-30T15:05:03.554Z,2.86
2017-04-30T15:07:31.291Z,2.68
2017-04-30T15:09:59.016Z,3.28
2017-04-30T15:12:27.491Z,2.68
2017-04-30T15:14:55.960Z,2.86
2017-04-30T15:17:23.683Z,2.78
2017-04-30T15:19:51.436Z,4.30
2017-04-30T15:22:19.164Z,2.64
2017-04-30T15:24:47.633Z,3.56
2017-04-30T15:27:15.375Z,3.42
2017-04-30T15:29:43.122Z,2.92
2017-04-30T15:32:11.864Z,2.26
2017-04-30T15:34:40.323Z,3.46
2017-04-30T15:37:08.047Z,3.58
2017-04-30T15:39:35.768Z,3.58
2017-04-30T15:42:04.248Z,3.34
2017-04-30T15:44:32.860Z,3.42
2017-04-30T15:47:00.659Z,2.68
2017-04-30T15:49:28.417Z,4.44
2017-04-30T15:51:56.183Z,4.66
2017-04-30T15:54:24.681Z,3.40
2017-04-30T15:56:52.440Z,3.82
2017-04-30T15:59:20.209Z,2.96
2017-04-30T16:01:47.971Z,3.10
2017-04-30T16:04:15.716Z,2.80
2017-04-30T16:06:43.715Z,3.38
2017-04-30T16:09:11.443Z,3.38
2017-04-30T16:11:39.187Z,4.46
2017-04-30T16:14:06.956Z,5.92
2017-04-30T16:16:34.700Z,3.02
2017-04-30T16:19:02.447Z,4.50
2017-04-30T16:21:31.901Z,2.90
2017-04-30T16:23:59.629Z,2.70
2017-04-30T16:26:27.359Z,3.80
2017-04-30T16:28:55.153Z,3.00
2017-04-30T16:31:22.876Z,3.46
2017-04-30T16:33:50.620Z,3.10
2017-04-30T16:36:18.489Z,3.30
2017-04-30T16:38:46.219Z,3.80
2017-04-30T16:41:13.950Z,3.20
2017-04-30T16:43:41.692Z,3.72
2017-04-30T16:46:09.449Z,3.60
2017-04-30T16:48:37.202Z,4.22
2017-04-30T16:51:04.978Z,4.86
2017-04-30T16:53:33.121Z,4.10
2017-04-30T16:56:00.869Z,4.28
2017-04-30T16:58:28.708Z,5.50
2017-04-30T17:00:57.194Z,5.88
2017-04-30T17:03:25.672Z,9.38
2017-04-30T17:05:54.149Z,7.64
2017-04-30T17:08:22.637Z,9.46
2017-04-30T17:10:51.100Z,8.10
2017-04-30T17:13:19.287Z,6.96
2017-04-30T17:15:47.805Z,9.40
2017-04-30T17:18:15.532Z,9.66
2017-04-30T17:20:44.026Z,5.54
2017-04-30T17:23:11.778Z,4.74
2017-04-30T17:25:40.253Z,3.78
2017-04-30T17:28:08.732Z,3.80
2017-04-30T17:30:36.469Z,4.50
2017-04-30T17:33:04.213Z,5.20
2017-04-30T17:35:31.975Z,4.37
2017-04-30T17:37:59.752Z,3.30
2017-04-30T17:40:27.510Z,5.12
2017-04-30T17:42:55.271Z,3.18
2017-04-30T17:45:23.017Z,3.16
2017-04-30T17:47:50.752Z,5.56
2017-04-30T17:50:19.450Z,4.26
2017-04-30T17:52:47.197Z,7.82
2017-04-30T17:55:15.680Z,3.90
2017-04-30T17:57:44.225Z,2.82
2017-04-30T18:00:11.948Z,3.24
2017-04-30T18:02:39.684Z,3.22
2017-04-30T18:05:08.165Z,3.02
2017-04-30T18:07:36.644Z,3.48
2017-04-30T18:10:05.120Z,5.80
2017-04-30T18:12:34.088Z,3.08
2017-04-30T18:15:01.827Z,2.90
2017-04-30T18:17:29.957Z,3.10
2017-04-30T18:19:57.704Z,2.62
2017-04-30T18:22:25.921Z,2.30
2017-04-30T18:24:54.298Z,4.52
2017-04-30T18:27:22.085Z,2.57
2017-04-30T18:29:49.856Z,5.28
2017-04-30T18:32:17.615Z,3.30
2017-04-30T18:34:45.361Z,3.12
2017-04-30T18:37:13.140Z,3.65
2017-04-30T18:39:40.912Z,3.62
2017-04-30T18:42:08.681Z,4.25
2017-04-30T18:44:36.416Z,3.45
2017-04-30T18:47:04.175Z,3.43
2017-04-30T18:49:31.913Z,5.62
2017-04-30T18:52:00.383Z,3.13
2017-04-30T18:54:28.862Z,4.32
2017-04-30T18:56:57.379Z,6.23
2017-04-30T18:59:27.353Z,5.45
2017-04-30T19:01:55.080Z,4.72
2017-04-30T19:04:22.804Z,3.70
2017-04-30T19:06:50.633Z,4.33
2017-04-30T19:09:18.385Z,4.12
2017-04-30T19:11:46.119Z,4.08
2017-04-30T19:14:13.844Z,6.92
2017-04-30T19:16:41.574Z,4.97
2017-04-30T19:19:09.334Z,5.77
2017-04-30T19:21:37.139Z,5.87
2017-04-30T19:24:04.910Z,5.83
2017-04-30T19:26:33.509Z,10.90
2017-04-30T19:29:01.232Z,6.52
2017-04-30T19:31:29.011Z,6.60
2017-04-30T19:33:56.813Z,8.53
2017-04-30T19:36:24.584Z,9.22
2017-04-30T19:38:52.375Z,13.25
2017-04-30T19:41:20.129Z,12.05
2017-04-30T19:43:47.902Z,16.58
2017-04-30T19:46:15.637Z,25.83
2017-04-30T19:48:43.368Z,15.85
2017-04-30T19:51:12.223Z,15.98
2017-04-30T19:53:39.985Z,19.05
2017-04-30T19:56:08.492Z,26.43
2017-04-30T19:58:36.216Z,15.93
2017-04-30T20:01:03.955Z,15.77
2017-04-30T20:03:31.681Z,16.70
2017-04-30T20:06:00.159Z,18.03
2017-04-30T20:08:27.887Z,16.43
2017-04-30T20:10:55.614Z,22.55
2017-04-30T20:13:23.343Z,11.95
2017-04-30T20:15:51.129Z,16.02
2017-04-30T20:18:19.595Z,14.27
2017-04-30T20:20:47.318Z,18.00
2017-04-30T20:23:15.048Z,16.02
2017-04-30T20:25:42.764Z,13.88
2017-04-30T20:28:10.498Z,16.63
2017-04-30T20:30:38.222Z,13.97
2017-04-30T20:33:06.699Z,11.50
2017-04-30T20:35:35.173Z,14.10
2017-04-30T20:38:02.906Z,14.52
2017-04-30T20:40:31.007Z,8.48
2017-04-30T20:42:58.732Z,15.48
2017-04-30T20:45:26.506Z,14.07
2017-04-30T20:47:54.245Z,12.58
2017-04-30T20:50:21.973Z,15.37
2017-04-30T20:52:50.473Z,15.33
2017-04-30T20:55:18.211Z,14.03
2017-04-30T20:57:46.691Z,11.57
2017-04-30T21:00:15.171Z,8.88
2017-04-30T21:02:43.636Z,13.75
2017-04-30T21:05:11.389Z,16.02
2017-04-30T21:07:39.106Z,9.90
2017-04-30T21:10:06.850Z,12.13
2017-04-30T21:12:36.445Z,10.17
2017-04-30T21:15:04.916Z,14.53
2017-04-30T21:17:32.636Z,11.13
2017-04-30T21:20:01.467Z,13.35
2017-04-30T21:22:29.210Z,11.68
2017-04-30T21:24:56.933Z,8.60
2017-04-30T21:27:24.712Z,12.17
2017-04-30T21:29:52.432Z,9.37
2017-04-30T21:32:20.985Z,11.40
2017-04-30T21:34:48.713Z,7.03
2017-04-30T21:37:16.449Z,13.25
2017-04-30T21:39:44.908Z,9.78
2017-04-30T21:42:12.627Z,9.33
2017-04-30T21:44:41.620Z,9.03
2017-04-30T21:47:09.343Z,8.45
2017-04-30T21:49:37.816Z,10.35
2017-04-30T21:52:05.537Z,9.50
2017-04-30T21:54:33.260Z,10.45
2017-04-30T21:57:01.732Z,10.95
2017-04-30T21:59:30.279Z,8.00
2017-04-30T22:01:58.007Z,9.82
2017-04-30T22:04:25.738Z,9.70
2017-04-30T22:06:54.235Z,8.07
2017-04-30T22:09:21.969Z,6.90
2017-04-30T22:11:49.689Z,6.62
2017-04-30T22:14:17.405Z,9.37
2017-04-30T22:16:45.888Z,9.53
2017-04-30T22:19:14.360Z,7.67
2017-04-30T22:21:42.080Z,11.98
2017-04-30T22:24:09.800Z,6.97
2017-04-30T22:26:38.272Z,12.83
2017-04-30T22:29:06.741Z,10.20
2017-04-30T22:31:34.465Z,9.60
2017-04-30T22:34:02.240Z,7.78
2017-04-30T22:36:30.910Z,7.32
2017-04-30T22:38:58.633Z,7.32
2017-04-30T22:41:27.095Z,9.70
2017-04-30T22:43:56.352Z,10.50
2017-04-30T22:46:24.075Z,13.33
2017-04-30T22:48:52.538Z,5.72
2017-04-30T22:51:20.283Z,9.38
2017-04-30T22:53:48.008Z,8.72
2017-04-30T22:56:15.756Z,8.05
2017-04-30T22:58:45.345Z,12.93
2017-04-30T23:01:13.803Z,9.63
2017-04-30T23:03:41.524Z,8.75
2017-04-30T23:06:10.370Z,6.25
2017-04-30T23:08:38.092Z,6.32
2017-04-30T23:11:06.548Z,8.43
2017-04-30T23:13:34.321Z,7.70
2017-04-30T23:16:02.784Z,9.58
2017-04-30T23:18:30.525Z,8.88
2017-04-30T23:20:58.840Z,5.95
2017-04-30T23:23:26.565Z,6.98
2017-04-30T23:25:54.286Z,8.02
2017-04-30T23:28:22.784Z,9.77
2017-04-30T23:30:50.518Z,7.30
2017-04-30T23:33:18.241Z,9.00
2017-04-30T23:35:46.924Z,7.47
2017-04-30T23:38:15.395Z,6.40
2017-04-30T23:40:43.116Z,7.53
2017-04-30T23:43:11.816Z,6.98
2017-04-30T23:45:39.536Z,9.55
2017-04-30T23:48:07.260Z,7.18
2017-04-30T23:50:35.004Z,6.72
2017-04-30T23:53:02.756Z,8.73
2017-04-30T23:55:30.489Z,8.05
2017-04-30T23:57:58.236Z,5.92
